sensor_id;sensor_type;location;lat;lon;timestamp;P1;durP1;ratioP1;P2;durP2;ratioP2
36189;SDS011;22232;50.914;13.858;2023-08-20T00:00:05;9.25;;;8.10;;
36189;SDS011;22232;50.914;13.858;2023-08-20T00:02:38;10.20;;;7.90;;
36189;SDS011;22232;50.914;13.858;2023-08-20T00:05:13;10.07;;;8.75;;
36189;SDS011;22232;50.914;13.858;2023-08-20T00:07:41;12.05;;;8.95;;
36189;SDS011;22232;50.914;13.858;2023-08-20T00:10:09;10.57;;;9.20;;
36189;SDS011;22232;50.914;13.858;2023-08-20T00:12:37;10.50;;;8.73;;
36189;SDS011;22232;50.914;13.858;2023-08-20T00:15:05;10.90;;;8.70;;
36189;SDS011;22232;50.914;13.858;2023-08-20T00:17:34;13.73;;;9.02;;
36189;SDS011;22232;50.914;13.858;2023-08-20T00:20:04;9.20;;;7.90;;
36189;SDS011;22232;50.914;13.858;2023-08-20T00:22:44;9.98;;;8.48;;
36189;SDS011;22232;50.914;13.858;2023-08-20T00:25:13;10.07;;;8.95;;
36189;SDS011;22232;50.914;13.858;2023-08-20T00:27:42;10.88;;;8.40;;
36189;SDS011;22232;50.914;13.858;2023-08-20T00:30:11;10.60;;;8.32;;
36189;SDS011;22232;50.914;13.858;2023-08-20T00:32:39;9.93;;;8.00;;
36189;SDS011;22232;50.914;13.858;2023-08-20T00:35:07;8.57;;;7.68;;
36189;SDS011;22232;50.914;13.858;2023-08-20T00:37:36;9.10;;;7.88;;
36189;SDS011;22232;50.914;13.858;2023-08-20T00:40:04;10.30;;;8.02;;
36189;SDS011;22232;50.914;13.858;2023-08-20T00:42:34;9.20;;;8.00;;
36189;SDS011;22232;50.914;13.858;2023-08-20T00:45:02;11.30;;;8.93;;
36189;SDS011;22232;50.914;13.858;2023-08-20T00:47:31;12.68;;;7.88;;
36189;SDS011;22232;50.914;13.858;2023-08-20T00:50:03;10.77;;;8.00;;
36189;SDS011;22232;50.914;13.858;2023-08-20T00:52:34;8.93;;;7.57;;
36189;SDS011;22232;50.914;13.858;2023-08-20T00:55:07;9.85;;;8.00;;
36189;SDS011;22232;50.914;13.858;2023-08-20T00:57:37;10.50;;;7.35;;
36189;SDS011;22232;50.914;13.858;2023-08-20T01:00:06;12.13;;;7.93;;
36189;SDS011;22232;50.914;13.858;2023-08-20T01:02:38;8.97;;;7.87;;
36189;SDS011;22232;50.914;13.858;2023-08-20T01:05:08;9.32;;;7.82;;
36189;SDS011;22232;50.914;13.858;2023-08-20T01:10:25;9.75;;;7.18;;
36189;SDS011;22232;50.914;13.858;2023-08-20T01:13:19;10.35;;;7.60;;
36189;SDS011;22232;50.914;13.858;2023-08-20T01:15:47;8.70;;;7.32;;
36189;SDS011;22232;50.914;13.858;2023-08-20T01:18:16;8.73;;;7.35;;
36189;SDS011;22232;50.914;13.858;2023-08-20T01:21:06;7.50;;;6.80;;
36189;SDS011;22232;50.914;13.858;2023-08-20T01:28:47;10.48;;;7.65;;
36189;SDS011;22232;50.914;13.858;2023-08-20T01:31:16;9.35;;;7.80;;
36189;SDS011;22232;50.914;13.858;2023-08-20T01:33:45;11.02;;;8.00;;
36189;SDS011;22232;50.914;13.858;2023-08-20T01:36:14;13.82;;;8.68;;
36189;SDS011;22232;50.914;13.858;2023-08-20T01:38:42;10.85;;;8.50;;
36189;SDS011;22232;50.914;13.858;2023-08-20T01:41:09;10.70;;;8.48;;
36189;SDS011;22232;50.914;13.858;2023-08-20T01:43:38;12.27;;;8.30;;
36189;SDS011;22232;50.914;13.858;2023-08-20T01:46:06;12.13;;;9.43;;
36189;SDS011;22232;50.914;13.858;2023-08-20T01:48:34;14.05;;;8.75;;
36189;SDS011;22232;50.914;13.858;2023-08-20T01:51:02;10.43;;;8.07;;
36189;SDS011;22232;50.914;13.858;2023-08-20T01:53:30;10.63;;;8.77;;
36189;SDS011;22232;50.914;13.858;2023-08-20T01:56:00;9.90;;;7.53;;
36189;SDS011;22232;50.914;13.858;2023-08-20T01:58:28;9.80;;;7.85;;
36189;SDS011;22232;50.914;13.858;2023-08-20T02:00:57;11.68;;;7.30;;
36189;SDS011;22232;50.914;13.858;2023-08-20T02:03:25;11.52;;;8.18;;
36189;SDS011;22232;50.914;13.858;2023-08-20T02:05:53;9.63;;;7.88;;
36189;SDS011;22232;50.914;13.858;2023-08-20T02:08:21;8.65;;;7.78;;
36189;SDS011;22232;50.914;13.858;2023-08-20T02:10:49;8.90;;;7.63;;
36189;SDS011;22232;50.914;13.858;2023-08-20T02:13:16;9.52;;;8.52;;
36189;SDS011;22232;50.914;13.858;2023-08-20T02:15:44;9.38;;;8.07;;
36189;SDS011;22232;50.914;13.858;2023-08-20T02:18:12;9.15;;;8.15;;
36189;SDS011;22232;50.914;13.858;2023-08-20T02:20:42;8.65;;;7.75;;
36189;SDS011;22232;50.914;13.858;2023-08-20T02:23:11;9.15;;;8.25;;
36189;SDS011;22232;50.914;13.858;2023-08-20T02:25:38;9.73;;;7.85;;
36189;SDS011;22232;50.914;13.858;2023-08-20T02:28:06;9.55;;;8.10;;
36189;SDS011;22232;50.914;13.858;2023-08-20T02:30:45;7.50;;;6.78;;
36189;SDS011;22232;50.914;13.858;2023-08-20T02:33:14;9.93;;;7.53;;
36189;SDS011;22232;50.914;13.858;2023-08-20T02:35:42;8.35;;;7.38;;
36189;SDS011;22232;50.914;13.858;2023-08-20T02:38:10;7.43;;;6.68;;
36189;SDS011;22232;50.914;13.858;2023-08-20T02:40:40;7.63;;;6.78;;
36189;SDS011;22232;50.914;13.858;2023-08-20T02:43:11;12.93;;;7.60;;
36189;SDS011;22232;50.914;13.858;2023-08-20T02:45:40;11.73;;;7.85;;
36189;SDS011;22232;50.914;13.858;2023-08-20T02:48:10;9.55;;;7.80;;
36189;SDS011;22232;50.914;13.858;2023-08-20T02:50:38;10.80;;;8.45;;
36189;SDS011;22232;50.914;13.858;2023-08-20T02:53:06;8.52;;;7.63;;
36189;SDS011;22232;50.914;13.858;2023-08-20T02:55:34;7.95;;;7.10;;
36189;SDS011;22232;50.914;13.858;2023-08-20T02:58:02;8.60;;;7.22;;
36189;SDS011;22232;50.914;13.858;2023-08-20T03:00:31;8.93;;;7.75;;
36189;SDS011;22232;50.914;13.858;2023-08-20T03:02:58;7.97;;;7.13;;
36189;SDS011;22232;50.914;13.858;2023-08-20T03:05:26;8.10;;;7.30;;
36189;SDS011;22232;50.914;13.858;2023-08-20T03:07:54;8.00;;;7.15;;
36189;SDS011;22232;50.914;13.858;2023-08-20T03:10:22;9.55;;;7.30;;
36189;SDS011;22232;50.914;13.858;2023-08-20T03:12:50;11.23;;;8.63;;
36189;SDS011;22232;50.914;13.858;2023-08-20T03:15:18;9.88;;;8.20;;
36189;SDS011;22232;50.914;13.858;2023-08-20T03:17:46;8.45;;;7.28;;
36189;SDS011;22232;50.914;13.858;2023-08-20T03:20:13;12.85;;;7.93;;
36189;SDS011;22232;50.914;13.858;2023-08-20T03:22:41;8.13;;;7.30;;
36189;SDS011;22232;50.914;13.858;2023-08-20T03:25:09;9.40;;;8.02;;
36189;SDS011;22232;50.914;13.858;2023-08-20T03:27:37;8.63;;;7.70;;
36189;SDS011;22232;50.914;13.858;2023-08-20T03:30:05;9.48;;;7.75;;
36189;SDS011;22232;50.914;13.858;2023-08-20T03:32:33;8.75;;;7.45;;
36189;SDS011;22232;50.914;13.858;2023-08-20T03:35:01;8.20;;;7.28;;
36189;SDS011;22232;50.914;13.858;2023-08-20T03:37:31;9.50;;;7.07;;
36189;SDS011;22232;50.914;13.858;2023-08-20T03:39:59;9.55;;;6.90;;
36189;SDS011;22232;50.914;13.858;2023-08-20T03:42:28;8.27;;;6.63;;
36189;SDS011;22232;50.914;13.858;2023-08-20T03:44:56;9.75;;;7.18;;
36189;SDS011;22232;50.914;13.858;2023-08-20T03:47:23;10.88;;;7.15;;
36189;SDS011;22232;50.914;13.858;2023-08-20T03:49:51;12.18;;;7.82;;
36189;SDS011;22232;50.914;13.858;2023-08-20T03:52:19;12.57;;;7.47;;
36189;SDS011;22232;50.914;13.858;2023-08-20T03:54:47;10.93;;;7.38;;
36189;SDS011;22232;50.914;13.858;2023-08-20T03:57:15;12.30;;;7.45;;
36189;SDS011;22232;50.914;13.858;2023-08-20T03:59:44;10.95;;;7.13;;
36189;SDS011;22232;50.914;13.858;2023-08-20T04:02:13;8.43;;;7.05;;
36189;SDS011;22232;50.914;13.858;2023-08-20T04:04:42;10.85;;;7.22;;
36189;SDS011;22232;50.914;13.858;2023-08-20T04:07:09;10.48;;;7.50;;
36189;SDS011;22232;50.914;13.858;2023-08-20T04:09:37;12.77;;;7.80;;
36189;SDS011;22232;50.914;13.858;2023-08-20T04:12:06;8.57;;;7.07;;
36189;SDS011;22232;50.914;13.858;2023-08-20T04:14:36;11.52;;;8.32;;
36189;SDS011;22232;50.914;13.858;2023-08-20T04:17:04;11.95;;;7.72;;
36189;SDS011;22232;50.914;13.858;2023-08-20T04:19:32;11.77;;;8.07;;
36189;SDS011;22232;50.914;13.858;2023-08-20T04:22:00;10.23;;;7.95;;
36189;SDS011;22232;50.914;13.858;2023-08-20T04:24:27;10.95;;;8.02;;
36189;SDS011;22232;50.914;13.858;2023-08-20T04:26:55;9.57;;;7.93;;
36189;SDS011;22232;50.914;13.858;2023-08-20T04:29:28;9.07;;;8.15;;
36189;SDS011;22232;50.914;13.858;2023-08-20T04:31:56;13.02;;;9.02;;
36189;SDS011;22232;50.914;13.858;2023-08-20T04:34:24;14.73;;;9.23;;
36189;SDS011;22232;50.914;13.858;2023-08-20T04:36:53;11.10;;;8.45;;
36189;SDS011;22232;50.914;13.858;2023-08-20T04:39:21;14.02;;;9.43;;
36189;SDS011;22232;50.914;13.858;2023-08-20T04:41:51;11.57;;;8.52;;
36189;SDS011;22232;50.914;13.858;2023-08-20T04:44:21;11.60;;;8.85;;
36189;SDS011;22232;50.914;13.858;2023-08-20T04:46:49;15.00;;;9.10;;
36189;SDS011;22232;50.914;13.858;2023-08-20T04:49:18;11.13;;;8.32;;
36189;SDS011;22232;50.914;13.858;2023-08-20T04:51:46;16.13;;;8.68;;
36189;SDS011;22232;50.914;13.858;2023-08-20T04:54:14;13.50;;;8.80;;
36189;SDS011;22232;50.914;13.858;2023-08-20T04:56:42;14.73;;;9.05;;
36189;SDS011;22232;50.914;13.858;2023-08-20T04:59:09;12.93;;;8.75;;
36189;SDS011;22232;50.914;13.858;2023-08-20T05:02:05;11.93;;;8.95;;
36189;SDS011;22232;50.914;13.858;2023-08-20T05:04:39;10.43;;;7.70;;
36189;SDS011;22232;50.914;13.858;2023-08-20T05:07:07;9.32;;;8.07;;
36189;SDS011;22232;50.914;13.858;2023-08-20T05:09:36;17.42;;;8.95;;
36189;SDS011;22232;50.914;13.858;2023-08-20T05:12:05;12.05;;;8.43;;
36189;SDS011;22232;50.914;13.858;2023-08-20T05:14:34;13.30;;;9.10;;
36189;SDS011;22232;50.914;13.858;2023-08-20T05:17:02;12.13;;;8.98;;
36189;SDS011;22232;50.914;13.858;2023-08-20T05:19:30;9.13;;;8.05;;
36189;SDS011;22232;50.914;13.858;2023-08-20T05:21:57;12.93;;;9.55;;
36189;SDS011;22232;50.914;13.858;2023-08-20T05:24:31;14.02;;;8.65;;
36189;SDS011;22232;50.914;13.858;2023-08-20T05:27:08;12.45;;;9.43;;
36189;SDS011;22232;50.914;13.858;2023-08-20T05:29:38;12.18;;;9.00;;
36189;SDS011;22232;50.914;13.858;2023-08-20T05:32:07;12.90;;;8.25;;
36189;SDS011;22232;50.914;13.858;2023-08-20T05:34:35;12.50;;;9.23;;
36189;SDS011;22232;50.914;13.858;2023-08-20T05:37:03;12.65;;;9.35;;
36189;SDS011;22232;50.914;13.858;2023-08-20T05:39:36;14.38;;;9.68;;
36189;SDS011;22232;50.914;13.858;2023-08-20T05:42:06;13.63;;;8.85;;
36189;SDS011;22232;50.914;13.858;2023-08-20T05:44:34;12.82;;;9.30;;
36189;SDS011;22232;50.914;13.858;2023-08-20T05:47:03;12.50;;;9.20;;
36189;SDS011;22232;50.914;13.858;2023-08-20T05:49:33;12.13;;;8.25;;
36189;SDS011;22232;50.914;13.858;2023-08-20T05:52:01;15.23;;;9.23;;
36189;SDS011;22232;50.914;13.858;2023-08-20T05:54:30;14.00;;;9.48;;
36189;SDS011;22232;50.914;13.858;2023-08-20T05:56:58;13.27;;;8.68;;
36189;SDS011;22232;50.914;13.858;2023-08-20T05:59:26;14.88;;;9.30;;
36189;SDS011;22232;50.914;13.858;2023-08-20T06:01:54;15.90;;;9.27;;
36189;SDS011;22232;50.914;13.858;2023-08-20T06:04:22;15.35;;;9.48;;
36189;SDS011;22232;50.914;13.858;2023-08-20T06:06:50;10.65;;;9.02;;
36189;SDS011;22232;50.914;13.858;2023-08-20T06:09:18;14.10;;;9.00;;
36189;SDS011;22232;50.914;13.858;2023-08-20T06:11:46;12.52;;;9.52;;
36189;SDS011;22232;50.914;13.858;2023-08-20T06:14:14;10.82;;;9.02;;
36189;SDS011;22232;50.914;13.858;2023-08-20T06:16:42;12.65;;;9.10;;
36189;SDS011;22232;50.914;13.858;2023-08-20T06:19:10;17.17;;;9.30;;
36189;SDS011;22232;50.914;13.858;2023-08-20T06:21:37;10.38;;;8.15;;
36189;SDS011;22232;50.914;13.858;2023-08-20T06:24:05;9.85;;;8.73;;
36189;SDS011;22232;50.914;13.858;2023-08-20T06:26:34;11.02;;;8.60;;
36189;SDS011;22232;50.914;13.858;2023-08-20T06:29:02;12.90;;;8.23;;
36189;SDS011;22232;50.914;13.858;2023-08-20T06:31:30;11.80;;;8.82;;
36189;SDS011;22232;50.914;13.858;2023-08-20T06:33:58;11.20;;;8.73;;
36189;SDS011;22232;50.914;13.858;2023-08-20T06:36:25;12.88;;;8.57;;
36189;SDS011;22232;50.914;13.858;2023-08-20T06:38:53;11.20;;;8.52;;
36189;SDS011;22232;50.914;13.858;2023-08-20T06:41:21;11.82;;;8.30;;
36189;SDS011;22232;50.914;13.858;2023-08-20T06:43:50;10.35;;;7.63;;
36189;SDS011;22232;50.914;13.858;2023-08-20T06:46:17;11.18;;;8.23;;
36189;SDS011;22232;50.914;13.858;2023-08-20T06:48:45;10.18;;;7.82;;
36189;SDS011;22232;50.914;13.858;2023-08-20T06:51:14;9.15;;;7.72;;
36189;SDS011;22232;50.914;13.858;2023-08-20T06:53:45;14.77;;;8.07;;
36189;SDS011;22232;50.914;13.858;2023-08-20T06:56:13;11.55;;;8.65;;
36189;SDS011;22232;50.914;13.858;2023-08-20T06:58:41;10.98;;;8.50;;
36189;SDS011;22232;50.914;13.858;2023-08-20T07:01:09;13.07;;;8.18;;
36189;SDS011;22232;50.914;13.858;2023-08-20T07:03:39;13.70;;;9.43;;
36189;SDS011;22232;50.914;13.858;2023-08-20T07:06:09;9.50;;;7.88;;
36189;SDS011;22232;50.914;13.858;2023-08-20T07:08:37;13.77;;;8.90;;
36189;SDS011;22232;50.914;13.858;2023-08-20T07:11:08;13.23;;;8.30;;
36189;SDS011;22232;50.914;13.858;2023-08-20T07:13:36;12.27;;;8.30;;
36189;SDS011;22232;50.914;13.858;2023-08-20T07:16:04;10.82;;;8.15;;
36189;SDS011;22232;50.914;13.858;2023-08-20T07:18:32;10.55;;;7.57;;
36189;SDS011;22232;50.914;13.858;2023-08-20T07:21:00;12.32;;;8.50;;
36189;SDS011;22232;50.914;13.858;2023-08-20T07:23:28;12.35;;;8.00;;
36189;SDS011;22232;50.914;13.858;2023-08-20T07:26:08;12.20;;;8.25;;
36189;SDS011;22232;50.914;13.858;2023-08-20T07:28:37;12.80;;;7.93;;
36189;SDS011;22232;50.914;13.858;2023-08-20T07:31:24;10.68;;;8.18;;
36189;SDS011;22232;50.914;13.858;2023-08-20T07:33:53;10.23;;;7.65;;
36189;SDS011;22232;50.914;13.858;2023-08-20T07:36:23;8.75;;;7.75;;
36189;SDS011;22232;50.914;13.858;2023-08-20T07:38:53;10.32;;;7.40;;
36189;SDS011;22232;50.914;13.858;2023-08-20T07:41:21;12.35;;;7.53;;
36189;SDS011;22232;50.914;13.858;2023-08-20T07:43:49;12.77;;;7.82;;
36189;SDS011;22232;50.914;13.858;2023-08-20T07:46:18;9.82;;;8.13;;
36189;SDS011;22232;50.914;13.858;2023-08-20T07:48:46;9.82;;;7.35;;
36189;SDS011;22232;50.914;13.858;2023-08-20T07:51:14;11.57;;;7.28;;
36189;SDS011;22232;50.914;13.858;2023-08-20T07:53:42;11.60;;;7.35;;
36189;SDS011;22232;50.914;13.858;2023-08-20T07:56:10;9.18;;;7.15;;
36189;SDS011;22232;50.914;13.858;2023-08-20T07:58:37;11.13;;;7.22;;
36189;SDS011;22232;50.914;13.858;2023-08-20T08:01:05;9.88;;;7.10;;
36189;SDS011;22232;50.914;13.858;2023-08-20T08:03:33;12.00;;;8.00;;
36189;SDS011;22232;50.914;13.858;2023-08-20T08:06:01;11.15;;;7.80;;
36189;SDS011;22232;50.914;13.858;2023-08-20T08:08:32;10.80;;;7.78;;
36189;SDS011;22232;50.914;13.858;2023-08-20T08:11:00;10.57;;;8.13;;
36189;SDS011;22232;50.914;13.858;2023-08-20T08:13:28;9.75;;;7.88;;
36189;SDS011;22232;50.914;13.858;2023-08-20T08:15:59;8.90;;;8.00;;
36189;SDS011;22232;50.914;13.858;2023-08-20T08:18:27;8.73;;;7.20;;
36189;SDS011;22232;50.914;13.858;2023-08-20T08:20:54;10.15;;;7.22;;
36189;SDS011;22232;50.914;13.858;2023-08-20T08:23:22;9.70;;;7.03;;
36189;SDS011;22232;50.914;13.858;2023-08-20T08:25:50;9.35;;;7.68;;
36189;SDS011;22232;50.914;13.858;2023-08-20T08:28:18;9.63;;;6.47;;
36189;SDS011;22232;50.914;13.858;2023-08-20T08:30:45;12.05;;;7.20;;
36189;SDS011;22232;50.914;13.858;2023-08-20T08:33:13;8.55;;;7.43;;
36189;SDS011;22232;50.914;13.858;2023-08-20T08:35:41;8.63;;;7.03;;
36189;SDS011;22232;50.914;13.858;2023-08-20T08:38:09;9.57;;;7.43;;
36189;SDS011;22232;50.914;13.858;2023-08-20T08:40:37;11.90;;;7.75;;
36189;SDS011;22232;50.914;13.858;2023-08-20T08:43:08;8.98;;;6.30;;
36189;SDS011;22232;50.914;13.858;2023-08-20T08:45:46;11.00;;;7.97;;
36189;SDS011;22232;50.914;13.858;2023-08-20T08:48:16;10.18;;;7.55;;
36189;SDS011;22232;50.914;13.858;2023-08-20T08:50:46;8.30;;;7.38;;
36189;SDS011;22232;50.914;13.858;2023-08-20T08:53:14;10.75;;;7.10;;
36189;SDS011;22232;50.914;13.858;2023-08-20T08:55:42;9.80;;;8.40;;
36189;SDS011;22232;50.914;13.858;2023-08-20T08:58:10;10.90;;;7.50;;
36189;SDS011;22232;50.914;13.858;2023-08-20T09:00:37;9.15;;;8.05;;
36189;SDS011;22232;50.914;13.858;2023-08-20T09:03:05;10.35;;;7.95;;
36189;SDS011;22232;50.914;13.858;2023-08-20T09:05:44;10.25;;;7.80;;
36189;SDS011;22232;50.914;13.858;2023-08-20T09:08:23;16.00;;;7.88;;
36189;SDS011;22232;50.914;13.858;2023-08-20T09:10:55;10.68;;;7.82;;
36189;SDS011;22232;50.914;13.858;2023-08-20T09:13:36;10.15;;;7.28;;
36189;SDS011;22232;50.914;13.858;2023-08-20T09:16:07;9.00;;;8.02;;
36189;SDS011;22232;50.914;13.858;2023-08-20T09:18:45;10.30;;;7.70;;
36189;SDS011;22232;50.914;13.858;2023-08-20T09:21:13;9.05;;;7.53;;
36189;SDS011;22232;50.914;13.858;2023-08-20T09:23:45;9.95;;;7.95;;
36189;SDS011;22232;50.914;13.858;2023-08-20T09:26:13;9.13;;;7.18;;
36189;SDS011;22232;50.914;13.858;2023-08-20T09:28:42;8.07;;;7.28;;
36189;SDS011;22232;50.914;13.858;2023-08-20T09:31:11;9.27;;;7.40;;
36189;SDS011;22232;50.914;13.858;2023-08-20T09:33:59;8.55;;;7.40;;
36189;SDS011;22232;50.914;13.858;2023-08-20T09:36:30;9.18;;;6.88;;
36189;SDS011;22232;50.914;13.858;2023-08-20T09:38:59;9.60;;;6.80;;
36189;SDS011;22232;50.914;13.858;2023-08-20T09:41:28;8.02;;;6.63;;
36189;SDS011;22232;50.914;13.858;2023-08-20T09:43:57;10.57;;;6.88;;
36189;SDS011;22232;50.914;13.858;2023-08-20T09:46:27;7.93;;;7.13;;
36189;SDS011;22232;50.914;13.858;2023-08-20T09:48:58;9.10;;;7.78;;
36189;SDS011;22232;50.914;13.858;2023-08-20T09:51:27;11.05;;;8.05;;
36189;SDS011;22232;50.914;13.858;2023-08-20T09:54:17;9.35;;;7.53;;
36189;SDS011;22232;50.914;13.858;2023-08-20T09:56:51;10.73;;;7.40;;
36189;SDS011;22232;50.914;13.858;2023-08-20T09:59:24;9.73;;;7.18;;
36189;SDS011;22232;50.914;13.858;2023-08-20T10:01:52;12.82;;;7.68;;
36189;SDS011;22232;50.914;13.858;2023-08-20T10:04:22;11.93;;;6.90;;
36189;SDS011;22232;50.914;13.858;2023-08-20T10:06:50;14.68;;;8.02;;
36189;SDS011;22232;50.914;13.858;2023-08-20T10:09:22;12.63;;;8.52;;
36189;SDS011;22232;50.914;13.858;2023-08-20T10:11:51;11.00;;;7.80;;
36189;SDS011;22232;50.914;13.858;2023-08-20T10:14:19;12.68;;;9.32;;
36189;SDS011;22232;50.914;13.858;2023-08-20T10:20:02;9.80;;;8.80;;
36189;SDS011;22232;50.914;13.858;2023-08-20T10:22:38;10.65;;;9.52;;
36189;SDS011;22232;50.914;13.858;2023-08-20T10:25:08;13.10;;;10.32;;
36189;SDS011;22232;50.914;13.858;2023-08-20T10:27:41;13.65;;;11.25;;
36189;SDS011;22232;50.914;13.858;2023-08-20T10:30:19;14.73;;;10.52;;
36189;SDS011;22232;50.914;13.858;2023-08-20T10:32:53;15.88;;;12.18;;
36189;SDS011;22232;50.914;13.858;2023-08-20T10:35:46;17.08;;;11.73;;
36189;SDS011;22232;50.914;13.858;2023-08-20T10:38:15;14.05;;;10.88;;
36189;SDS011;22232;50.914;13.858;2023-08-20T10:40:53;15.68;;;12.13;;
36189;SDS011;22232;50.914;13.858;2023-08-20T10:43:37;15.32;;;11.40;;
36189;SDS011;22232;50.914;13.858;2023-08-20T10:46:07;13.57;;;10.77;;
36189;SDS011;22232;50.914;13.858;2023-08-20T10:48:40;27.50;;;11.48;;
36189;SDS011;22232;50.914;13.858;2023-08-20T10:51:12;14.45;;;11.10;;
36189;SDS011;22232;50.914;13.858;2023-08-20T10:53:42;13.98;;;10.65;;
36189;SDS011;22232;50.914;13.858;2023-08-20T10:58:45;13.68;;;11.45;;
36189;SDS011;22232;50.914;13.858;2023-08-20T11:03:45;13.48;;;11.00;;
36189;SDS011;22232;50.914;13.858;2023-08-20T11:06:14;11.77;;;10.25;;
36189;SDS011;22232;50.914;13.858;2023-08-20T11:08:42;12.95;;;10.70;;
36189;SDS011;22232;50.914;13.858;2023-08-20T11:11:10;21.02;;;10.90;;
36189;SDS011;22232;50.914;13.858;2023-08-20T11:13:39;11.90;;;10.75;;
36189;SDS011;22232;50.914;13.858;2023-08-20T11:16:07;12.45;;;9.75;;
36189;SDS011;22232;50.914;13.858;2023-08-20T11:18:35;11.18;;;9.70;;
36189;SDS011;22232;50.914;13.858;2023-08-20T11:21:03;10.05;;;8.75;;
36189;SDS011;22232;50.914;13.858;2023-08-20T11:23:31;12.25;;;8.95;;
36189;SDS011;22232;50.914;13.858;2023-08-20T11:25:59;11.13;;;9.05;;
36189;SDS011;22232;50.914;13.858;2023-08-20T11:28:27;10.90;;;9.50;;
36189;SDS011;22232;50.914;13.858;2023-08-20T11:30:56;11.90;;;9.23;;
36189;SDS011;22232;50.914;13.858;2023-08-20T11:33:24;12.05;;;8.95;;
36189;SDS011;22232;50.914;13.858;2023-08-20T11:35:53;9.15;;;8.25;;
36189;SDS011;22232;50.914;13.858;2023-08-20T11:38:22;9.18;;;8.10;;
36189;SDS011;22232;50.914;13.858;2023-08-20T11:40:51;10.45;;;7.75;;
36189;SDS011;22232;50.914;13.858;2023-08-20T11:43:19;8.73;;;6.90;;
36189;SDS011;22232;50.914;13.858;2023-08-20T11:45:47;10.20;;;7.20;;
36189;SDS011;22232;50.914;13.858;2023-08-20T11:48:16;10.13;;;7.50;;
36189;SDS011;22232;50.914;13.858;2023-08-20T11:50:44;9.57;;;7.43;;
36189;SDS011;22232;50.914;13.858;2023-08-20T11:53:12;10.80;;;8.00;;
36189;SDS011;22232;50.914;13.858;2023-08-20T11:55:40;9.23;;;7.32;;
36189;SDS011;22232;50.914;13.858;2023-08-20T11:58:11;11.40;;;7.60;;
36189;SDS011;22232;50.914;13.858;2023-08-20T12:00:40;9.27;;;7.60;;
36189;SDS011;22232;50.914;13.858;2023-08-20T12:03:08;11.25;;;7.57;;
36189;SDS011;22232;50.914;13.858;2023-08-20T12:05:40;9.95;;;7.82;;
36189;SDS011;22232;50.914;13.858;2023-08-20T12:08:14;9.50;;;7.53;;
36189;SDS011;22232;50.914;13.858;2023-08-20T12:10:44;9.18;;;7.82;;
36189;SDS011;22232;50.914;13.858;2023-08-20T12:13:12;9.50;;;8.55;;
36189;SDS011;22232;50.914;13.858;2023-08-20T12:15:40;10.55;;;8.50;;
36189;SDS011;22232;50.914;13.858;2023-08-20T12:18:07;9.75;;;7.72;;
36189;SDS011;22232;50.914;13.858;2023-08-20T12:20:36;10.02;;;7.70;;
36189;SDS011;22232;50.914;13.858;2023-08-20T12:23:05;9.38;;;7.32;;
36189;SDS011;22232;50.914;13.858;2023-08-20T12:25:34;9.48;;;7.60;;
36189;SDS011;22232;50.914;13.858;2023-08-20T12:28:03;7.95;;;7.15;;
36189;SDS011;22232;50.914;13.858;2023-08-20T12:30:34;8.35;;;7.18;;
36189;SDS011;22232;50.914;13.858;2023-08-20T12:33:05;10.88;;;7.18;;
36189;SDS011;22232;50.914;13.858;2023-08-20T12:35:34;8.70;;;7.32;;
36189;SDS011;22232;50.914;13.858;2023-08-20T12:38:02;9.48;;;7.28;;
36189;SDS011;22232;50.914;13.858;2023-08-20T12:40:31;9.43;;;7.82;;
36189;SDS011;22232;50.914;13.858;2023-08-20T12:42:59;9.50;;;7.32;;
36189;SDS011;22232;50.914;13.858;2023-08-20T12:45:26;11.98;;;7.90;;
36189;SDS011;22232;50.914;13.858;2023-08-20T12:47:54;9.60;;;7.00;;
36189;SDS011;22232;50.914;13.858;2023-08-20T12:50:25;8.25;;;7.28;;
36189;SDS011;22232;50.914;13.858;2023-08-20T12:52:52;7.68;;;6.88;;
36189;SDS011;22232;50.914;13.858;2023-08-20T12:55:20;7.80;;;5.95;;
36189;SDS011;22232;50.914;13.858;2023-08-20T12:57:55;8.57;;;6.95;;
36189;SDS011;22232;50.914;13.858;2023-08-20T13:00:24;8.18;;;7.22;;
36189;SDS011;22232;50.914;13.858;2023-08-20T13:02:53;8.90;;;6.97;;
36189;SDS011;22232;50.914;13.858;2023-08-20T13:05:22;8.68;;;7.65;;
36189;SDS011;22232;50.914;13.858;2023-08-20T13:07:51;10.60;;;7.25;;
36189;SDS011;22232;50.914;13.858;2023-08-20T13:10:20;9.73;;;7.88;;
36189;SDS011;22232;50.914;13.858;2023-08-20T13:12:49;8.65;;;7.82;;
36189;SDS011;22232;50.914;13.858;2023-08-20T13:15:22;11.52;;;7.80;;
36189;SDS011;22232;50.914;13.858;2023-08-20T13:17:50;10.68;;;8.55;;
36189;SDS011;22232;50.914;13.858;2023-08-20T13:20:18;11.95;;;7.82;;
36189;SDS011;22232;50.914;13.858;2023-08-20T13:22:50;9.88;;;7.82;;
36189;SDS011;22232;50.914;13.858;2023-08-20T13:25:19;11.50;;;8.40;;
36189;SDS011;22232;50.914;13.858;2023-08-20T13:27:50;11.20;;;8.43;;
36189;SDS011;22232;50.914;13.858;2023-08-20T13:30:17;9.15;;;8.20;;
36189;SDS011;22232;50.914;13.858;2023-08-20T13:32:46;9.48;;;7.38;;
36189;SDS011;22232;50.914;13.858;2023-08-20T13:35:15;10.07;;;7.80;;
36189;SDS011;22232;50.914;13.858;2023-08-20T13:37:42;10.05;;;7.85;;
36189;SDS011;22232;50.914;13.858;2023-08-20T13:40:10;11.13;;;8.27;;
36189;SDS011;22232;50.914;13.858;2023-08-20T13:42:38;8.77;;;7.88;;
36189;SDS011;22232;50.914;13.858;2023-08-20T13:45:06;8.00;;;7.10;;
36189;SDS011;22232;50.914;13.858;2023-08-20T13:47:34;8.48;;;7.35;;
36189;SDS011;22232;50.914;13.858;2023-08-20T13:50:02;11.25;;;7.53;;
36189;SDS011;22232;50.914;13.858;2023-08-20T13:52:32;10.55;;;7.43;;
36189;SDS011;22232;50.914;13.858;2023-08-20T13:55:00;11.05;;;7.80;;
36189;SDS011;22232;50.914;13.858;2023-08-20T13:57:28;9.88;;;7.10;;
36189;SDS011;22232;50.914;13.858;2023-08-20T13:59:56;9.60;;;7.35;;
36189;SDS011;22232;50.914;13.858;2023-08-20T14:02:24;9.80;;;7.13;;
36189;SDS011;22232;50.914;13.858;2023-08-20T14:04:51;9.52;;;7.53;;
36189;SDS011;22232;50.914;13.858;2023-08-20T14:07:19;9.32;;;7.53;;
36189;SDS011;22232;50.914;13.858;2023-08-20T14:09:47;10.30;;;7.68;;
36189;SDS011;22232;50.914;13.858;2023-08-20T14:12:15;8.70;;;7.80;;
36189;SDS011;22232;50.914;13.858;2023-08-20T14:14:42;9.65;;;7.15;;
36189;SDS011;22232;50.914;13.858;2023-08-20T14:17:27;9.15;;;7.97;;
36189;SDS011;22232;50.914;13.858;2023-08-20T14:19:55;16.98;;;8.82;;
36189;SDS011;22232;50.914;13.858;2023-08-20T14:22:23;9.32;;;7.78;;
36189;SDS011;22232;50.914;13.858;2023-08-20T14:24:51;10.35;;;7.68;;
36189;SDS011;22232;50.914;13.858;2023-08-20T14:27:18;9.57;;;7.82;;
36189;SDS011;22232;50.914;13.858;2023-08-20T14:29:46;10.55;;;7.13;;
36189;SDS011;22232;50.914;13.858;2023-08-20T14:32:14;9.38;;;7.60;;
36189;SDS011;22232;50.914;13.858;2023-08-20T14:34:42;9.52;;;7.88;;
36189;SDS011;22232;50.914;13.858;2023-08-20T14:37:09;10.18;;;7.38;;
36189;SDS011;22232;50.914;13.858;2023-08-20T14:39:40;7.82;;;7.13;;
36189;SDS011;22232;50.914;13.858;2023-08-20T14:42:08;9.27;;;7.25;;
36189;SDS011;22232;50.914;13.858;2023-08-20T14:44:36;9.50;;;7.88;;
36189;SDS011;22232;50.914;13.858;2023-08-20T14:47:03;11.02;;;7.03;;
36189;SDS011;22232;50.914;13.858;2023-08-20T14:49:32;10.95;;;7.13;;
36189;SDS011;22232;50.914;13.858;2023-08-20T14:51:59;9.45;;;7.13;;
36189;SDS011;22232;50.914;13.858;2023-08-20T14:54:30;7.57;;;6.63;;